createdAt,value
2023-10-26T00:02:00.745Z,98341.20
2023-10-26T00:04:32.423Z,98337.60
2023-10-26T00:07:05.530Z,98336.40
2023-10-26T00:09:36.862Z,98334.40
2023-10-26T00:12:09.801Z,98330.60
2023-10-26T00:14:41.677Z,98332.60
2023-10-26T00:17:12.919Z,98333.80
2023-10-26T00:19:44.062Z,98335.40
2023-10-26T00:28:19.541Z,98323.40
2023-10-26T00:30:51.201Z,98322.60
2023-10-26T00:33:22.621Z,98315.00
2023-10-26T00:35:55.457Z,98309.80
2023-10-26T00:38:26.660Z,98310.40
2023-10-26T00:40:58.450Z,98312.60
2023-10-26T00:43:30.052Z,98314.80
2023-10-26T00:46:01.329Z,98316.00
2023-10-26T00:48:33.519Z,98311.20
2023-10-26T00:51:04.865Z,98307.20
2023-10-26T00:53:36.103Z,98305.60
2023-10-26T00:56:08.450Z,98309.80
2023-10-26T00:58:39.727Z,98302.80
2023-10-26T01:01:11.108Z,98299.00
2023-10-26T01:03:43.412Z,98300.40
2023-10-26T01:06:14.675Z,98293.40
2023-10-26T01:08:46.005Z,98296.00
2023-10-26T01:11:17.645Z,98295.40
2023-10-26T01:13:49.134Z,98298.00
2023-10-26T01:16:20.762Z,98298.80
2023-10-26T01:18:51.979Z,98298.80
2023-10-26T01:21:28.036Z,98294.80
2023-10-26T01:23:59.332Z,98289.80
2023-10-26T01:26:30.487Z,98288.20
2023-10-26T01:29:06.048Z,98278.20
2023-10-26T01:31:37.207Z,98274.00
2023-10-26T01:34:08.679Z,98277.00
2023-10-26T01:36:40.038Z,98286.20
2023-10-26T01:39:11.370Z,98285.40
2023-10-26T01:41:42.651Z,98277.20
2023-10-26T01:44:13.966Z,98262.80
2023-10-26T01:46:45.116Z,98244.40
2023-10-26T01:49:16.277Z,98243.00
2023-10-26T01:51:47.454Z,98235.40
2023-10-26T01:54:18.656Z,98220.60
2023-10-26T01:56:49.826Z,98220.40
2023-10-26T01:59:20.940Z,98220.00
2023-10-26T02:01:52.861Z,98220.00
2023-10-26T02:04:23.856Z,98219.60
2023-10-26T02:06:55.041Z,98216.80
2023-10-26T02:09:26.349Z,98220.60
2023-10-26T02:11:57.475Z,98228.40
2023-10-26T02:14:28.668Z,98227.80
2023-10-26T02:16:59.925Z,98221.80
2023-10-26T02:19:31.123Z,98211.60
2023-10-26T02:22:02.383Z,98202.60
2023-10-26T02:24:33.679Z,98211.00
2023-10-26T02:27:04.975Z,98200.40
2023-10-26T02:29:36.186Z,98196.40
2023-10-26T02:32:08.343Z,98194.80
2023-10-26T02:34:39.524Z,98190.40
2023-10-26T02:37:10.667Z,98178.20
2023-10-26T02:39:42.048Z,98171.60
2023-10-26T02:42:13.189Z,98168.40
2023-10-26T02:44:47.266Z,98165.80
2023-10-26T02:47:18.318Z,98174.00
2023-10-26T02:49:49.407Z,98168.80
2023-10-26T02:52:20.628Z,98169.60
2023-10-26T02:54:51.918Z,98160.80
2023-10-26T02:57:22.980Z,98156.20
2023-10-26T02:59:54.101Z,98154.60
2023-10-26T03:02:25.786Z,98140.40
2023-10-26T03:04:56.965Z,98134.20
2023-10-26T03:07:28.081Z,98126.20
2023-10-26T03:09:59.377Z,98127.40
2023-10-26T03:12:30.646Z,98132.80
2023-10-26T03:15:01.797Z,98141.60
2023-10-26T03:19:50.430Z,98149.80
2023-10-26T03:22:23.106Z,98153.80
2023-10-26T03:24:54.814Z,98151.20
2023-10-26T03:27:26.076Z,98145.80
2023-10-26T03:29:57.602Z,98139.60
2023-10-26T03:32:28.943Z,98131.00
2023-10-26T03:35:01.054Z,98123.20
2023-10-26T03:37:32.178Z,98123.20
2023-10-26T03:40:04.035Z,98120.60
2023-10-26T03:42:35.194Z,98116.80
2023-10-26T03:45:08.117Z,98116.00
2023-10-26T03:47:39.423Z,98121.40
2023-10-26T03:50:12.720Z,98113.40
2023-10-26T03:52:43.849Z,98116.80
2023-10-26T03:55:14.965Z,98111.40
2023-10-26T03:57:49.835Z,98106.40
2023-10-26T04:00:21.629Z,98101.60
2023-10-26T04:02:52.850Z,98096.40
2023-10-26T04:05:23.967Z,98097.60
2023-10-26T04:07:57.775Z,98088.40
2023-10-26T04:10:29.838Z,98080.00
2023-10-26T04:13:01.037Z,98072.20
2023-10-26T04:15:32.227Z,98061.80
2023-10-26T04:18:05.173Z,98061.60
2023-10-26T04:20:36.276Z,98064.20
2023-10-26T04:23:07.425Z,98062.00
2023-10-26T04:25:53.194Z,98052.20
2023-10-26T04:28:26.001Z,98042.20
2023-10-26T04:30:57.124Z,98046.40
2023-10-26T04:33:28.409Z,98046.20
2023-10-26T04:36:00.778Z,98049.60
2023-10-26T04:38:31.953Z,98039.80
2023-10-26T04:41:03.054Z,98038.40
2023-10-26T04:43:34.268Z,98034.20
2023-10-26T04:46:05.672Z,98031.00
2023-10-26T04:48:36.954Z,98031.20
2023-10-26T04:51:10.032Z,98022.40
2023-10-26T04:53:41.403Z,98014.00
2023-10-26T04:56:13.326Z,98013.80
2023-10-26T04:58:45.289Z,98013.00
2023-10-26T05:01:16.446Z,98012.80
2023-10-26T05:03:47.621Z,98012.60
2023-10-26T05:06:18.942Z,98011.20
2023-10-26T05:08:50.179Z,98005.60
2023-10-26T05:11:24.373Z,98007.40
2023-10-26T05:13:55.672Z,98004.60
2023-10-26T05:16:26.999Z,98004.20
2023-10-26T05:18:58.424Z,98002.20
2023-10-26T05:21:29.595Z,98006.20
2023-10-26T05:24:00.930Z,97999.80
2023-10-26T05:26:32.247Z,98004.40
2023-10-26T05:29:03.914Z,98001.40
2023-10-26T05:31:35.011Z,98002.20
2023-10-26T05:34:06.343Z,98000.60
2023-10-26T05:36:37.590Z,97997.00
2023-10-26T05:39:08.826Z,97999.60
2023-10-26T05:41:39.968Z,98000.40
2023-10-26T05:44:11.196Z,97996.40
2023-10-26T05:46:42.221Z,97995.80
2023-10-26T05:49:13.617Z,98001.00
2023-10-26T05:51:44.811Z,98004.80
2023-10-26T05:54:15.996Z,98004.60
2023-10-26T05:56:47.066Z,98006.80
2023-10-26T05:59:18.332Z,98005.40
2023-10-26T06:01:49.558Z,98005.00
2023-10-26T06:04:20.711Z,98000.00
2023-10-26T06:06:51.852Z,98009.20
2023-10-26T06:09:24.113Z,98014.80
2023-10-26T06:11:55.314Z,98014.00
2023-10-26T06:14:26.599Z,98017.80
2023-10-26T06:16:57.766Z,98020.00
2023-10-26T06:19:29.643Z,98023.20
2023-10-26T06:22:00.702Z,98028.80
2023-10-26T06:24:31.962Z,98029.00
2023-10-26T06:27:04.723Z,98034.80
2023-10-26T06:29:35.868Z,98038.40
2023-10-26T06:35:15.645Z,98040.80
2023-10-26T06:37:49.004Z,98040.40
2023-10-26T06:40:21.967Z,98040.80
2023-10-26T06:42:53.275Z,98041.20
2023-10-26T06:45:24.940Z,98040.80
2023-10-26T06:47:56.288Z,98037.20
2023-10-26T06:50:27.415Z,98043.00
2023-10-26T06:52:58.857Z,98045.20
2023-10-26T06:55:31.975Z,98042.80
2023-10-26T06:58:03.412Z,98046.40
2023-10-26T07:00:34.952Z,98046.40
2023-10-26T07:03:07.137Z,98041.00
2023-10-26T07:05:38.716Z,98045.60
2023-10-26T07:08:09.993Z,98047.60
2023-10-26T07:10:43.882Z,98054.20
2023-10-26T07:13:14.998Z,98054.20
2023-10-26T07:15:46.173Z,98054.40
2023-10-26T07:18:19.621Z,98049.60
2023-10-26T07:20:52.171Z,98046.60
2023-10-26T07:23:23.244Z,98060.40
2023-10-26T07:25:54.323Z,98057.80
2023-10-26T07:28:25.457Z,98066.40
2023-10-26T07:30:56.701Z,98071.00
2023-10-26T07:33:28.087Z,98066.40
2023-10-26T07:35:59.881Z,98073.00
2023-10-26T07:38:35.337Z,98073.40
2023-10-26T07:41:09.452Z,98074.60
2023-10-26T07:43:40.680Z,98077.80
2023-10-26T07:46:11.838Z,98075.60
2023-10-26T07:48:43.056Z,98073.00
2023-10-26T07:51:14.275Z,98073.20
2023-10-26T07:53:46.190Z,98076.00
2023-10-26T07:56:17.636Z,98073.80
2023-10-26T07:58:48.938Z,98075.60
2023-10-26T08:01:20.133Z,98071.00
2023-10-26T08:03:51.158Z,98070.60
2023-10-26T08:06:22.387Z,98071.00
2023-10-26T08:08:54.103Z,98083.40
2023-10-26T08:11:25.506Z,98083.20
2023-10-26T08:13:56.920Z,98082.20
2023-10-26T08:16:40.838Z,98085.40
2023-10-26T08:19:16.360Z,98078.40
2023-10-26T08:21:47.504Z,98074.40
2023-10-26T08:24:21.556Z,98079.00
2023-10-26T08:26:55.053Z,98083.00
2023-10-26T08:29:28.981Z,98078.20
2023-10-26T08:32:00.684Z,98083.40
2023-10-26T08:34:32.138Z,98081.80
2023-10-26T08:39:38.454Z,98085.40
2023-10-26T08:42:11.749Z,98091.40
2023-10-26T08:44:45.123Z,98095.80
2023-10-26T08:47:26.158Z,98101.40
2023-10-26T08:50:08.771Z,98107.80
2023-10-26T08:52:47.150Z,98100.20
2023-10-26T08:55:20.281Z,98108.60
2023-10-26T08:57:53.263Z,98116.00
2023-10-26T09:00:25.038Z,98117.40
2023-10-26T09:02:56.508Z,98117.40
2023-10-26T09:05:27.956Z,98118.00
2023-10-26T09:07:59.100Z,98115.60
2023-10-26T09:10:34.448Z,98116.60
2023-10-26T09:13:07.667Z,98123.00
2023-10-26T09:15:50.502Z,98128.60
2023-10-26T09:18:22.237Z,98125.00
2023-10-26T09:21:09.818Z,98123.80
2023-10-26T09:23:42.308Z,98123.80
2023-10-26T09:26:14.715Z,98119.80
2023-10-26T09:28:53.901Z,98116.00
2023-10-26T09:31:26.396Z,98117.40
2023-10-26T09:33:57.838Z,98119.40
2023-10-26T09:36:29.014Z,98122.80
2023-10-26T09:39:01.087Z,98125.20
2023-10-26T09:41:32.488Z,98127.20
2023-10-26T09:44:04.318Z,98128.00
2023-10-26T09:46:36.513Z,98122.40
2023-10-26T09:49:08.185Z,98120.80
2023-10-26T09:51:39.658Z,98122.20
2023-10-26T09:54:11.279Z,98118.40
2023-10-26T09:56:43.460Z,98117.20
2023-10-26T09:59:15.209Z,98113.60
2023-10-26T10:01:46.761Z,98120.60
2023-10-26T10:04:20.118Z,98115.80
2023-10-26T10:06:55.499Z,98111.80
2023-10-26T10:09:27.427Z,98117.40
2023-10-26T10:12:35.279Z,98120.00
2023-10-26T10:18:15.189Z,98119.40
2023-10-26T10:20:47.534Z,98116.60
2023-10-26T10:23:32.959Z,98115.80
2023-10-26T10:26:20.066Z,98113.20
2023-10-26T10:28:55.280Z,98118.40
2023-10-26T10:31:42.799Z,98110.00
2023-10-26T10:34:17.469Z,98107.80
2023-10-26T10:37:13.184Z,98108.80
2023-10-26T10:40:10.260Z,98106.60
2023-10-26T10:42:41.953Z,98113.00
2023-10-26T10:45:16.531Z,98106.00
2023-10-26T10:47:49.405Z,98105.80
2023-10-26T10:50:24.548Z,98106.60
2023-10-26T10:52:56.873Z,98101.40
2023-10-26T10:55:30.307Z,98100.80
2023-10-26T10:58:03.058Z,98101.20
2023-10-26T11:00:47.186Z,98096.40
2023-10-26T11:03:22.885Z,98090.60
2023-10-26T11:05:55.518Z,98091.20
2023-10-26T11:08:27.543Z,98089.20
2023-10-26T11:10:58.778Z,98089.80
2023-10-26T11:13:30.769Z,98093.20
2023-10-26T11:16:02.175Z,98096.20
2023-10-26T11:18:33.932Z,98100.00
2023-10-26T11:21:05.135Z,98097.40
2023-10-26T11:23:36.341Z,98100.40
2023-10-26T11:26:18.307Z,98107.20
2023-10-26T11:28:49.489Z,98106.60
2023-10-26T11:31:35.739Z,98109.80
2023-10-26T11:34:10.968Z,98110.40
2023-10-26T11:36:46.704Z,98109.40
2023-10-26T11:39:17.933Z,98120.80
2023-10-26T11:41:58.244Z,98113.20
2023-10-26T11:44:31.225Z,98120.20
2023-10-26T11:47:02.944Z,98116.80
2023-10-26T11:49:44.526Z,98115.60
2023-10-26T11:52:15.837Z,98114.60
2023-10-26T11:54:57.729Z,98113.40
2023-10-26T11:57:28.872Z,98115.80
2023-10-26T12:00:00.054Z,98119.40
2023-10-26T12:02:31.197Z,98123.40
2023-10-26T12:05:04.496Z,98127.00
2023-10-26T12:07:35.917Z,98129.00
2023-10-26T12:10:08.262Z,98130.20
2023-10-26T12:12:39.882Z,98133.60
2023-10-26T12:15:12.216Z,98125.00
2023-10-26T12:17:43.861Z,98118.60
2023-10-26T12:20:16.194Z,98124.40
2023-10-26T12:22:49.931Z,98125.80
2023-10-26T12:25:21.409Z,98123.60
2023-10-26T12:28:20.985Z,98128.60
2023-10-26T12:30:46.523Z,98133.40
2023-10-26T12:33:18.004Z,98138.40
2023-10-26T12:35:49.173Z,98139.80
2023-10-26T12:38:21.066Z,98143.00
2023-10-26T12:40:52.392Z,98145.20
2023-10-26T12:43:23.857Z,98147.60
2023-10-26T12:45:55.212Z,98141.80
2023-10-26T12:48:26.455Z,98137.20
2023-10-26T12:50:58.133Z,98146.60
2023-10-26T12:53:29.814Z,98140.60
2023-10-26T12:56:01.517Z,98143.20
2023-10-26T12:58:33.720Z,98136.00
2023-10-26T13:01:05.303Z,98137.40
2023-10-26T13:03:36.494Z,98144.40
2023-10-26T13:06:07.983Z,98141.80
2023-10-26T13:08:39.274Z,98145.60
2023-10-26T13:11:10.441Z,98145.00
2023-10-26T13:13:41.818Z,98149.60
2023-10-26T13:16:13.034Z,98148.60
2023-10-26T13:18:46.832Z,98145.80
2023-10-26T13:21:18.800Z,98150.80
2023-10-26T13:23:49.985Z,98149.00
2023-10-26T13:26:21.335Z,98152.20
2023-10-26T13:28:53.115Z,98161.60
2023-10-26T13:31:24.473Z,98159.40
2023-10-26T13:33:55.718Z,98163.00
2023-10-26T13:36:27.024Z,98156.40
2023-10-26T13:38:58.392Z,98162.20
2023-10-26T13:41:29.484Z,98172.20
2023-10-26T13:44:01.068Z,98176.80
2023-10-26T13:46:32.130Z,98183.00
2023-10-26T13:49:03.687Z,98185.80
2023-10-26T13:51:34.906Z,98188.20
2023-10-26T13:54:06.447Z,98194.20
2023-10-26T13:56:38.214Z,98198.40
2023-10-26T13:59:09.469Z,98200.60
2023-10-26T14:01:40.966Z,98203.60
2023-10-26T14:04:12.207Z,98206.40
2023-10-26T14:06:43.437Z,98198.20
2023-10-26T14:09:14.869Z,98199.00
2023-10-26T14:11:46.524Z,98205.20
2023-10-26T14:14:17.792Z,98206.20
2023-10-26T14:16:48.955Z,98202.00
2023-10-26T14:19:20.117Z,98206.60
2023-10-26T14:21:51.446Z,98206.40
2023-10-26T14:24:22.665Z,98202.20
2023-10-26T14:26:53.950Z,98207.80
2023-10-26T14:29:25.149Z,98208.60
2023-10-26T14:31:56.383Z,98204.00
2023-10-26T14:34:28.117Z,98207.00
2023-10-26T14:37:00.718Z,98212.40
2023-10-26T14:39:32.096Z,98211.40
2023-10-26T14:42:03.549Z,98210.00
2023-10-26T14:44:34.668Z,98221.20
2023-10-26T14:47:06.731Z,98212.60
2023-10-26T14:49:38.413Z,98221.20
2023-10-26T14:52:09.796Z,98223.00
2023-10-26T14:54:41.046Z,98228.80
2023-10-26T14:57:12.404Z,98227.60
2023-10-26T14:59:44.241Z,98231.00
2023-10-26T15:02:16.305Z,98230.80
2023-10-26T15:04:47.604Z,98238.00
2023-10-26T15:07:19.033Z,98244.60
2023-10-26T15:10:24.418Z,98244.00
2023-10-26T15:12:42.099Z,98242.40
2023-10-26T15:15:13.660Z,98249.80
2023-10-26T15:17:44.859Z,98256.60
2023-10-26T15:20:16.254Z,98253.80
2023-10-26T15:22:47.573Z,98257.20
2023-10-26T15:25:19.005Z,98257.60
2023-10-26T15:27:50.250Z,98263.40
2023-10-26T15:30:21.799Z,98263.80
2023-10-26T15:32:53.035Z,98258.40
2023-10-26T15:35:24.199Z,98262.00
2023-10-26T15:37:55.625Z,98259.00
2023-10-26T15:40:27.067Z,98261.80
2023-10-26T15:42:58.272Z,98264.60
2023-10-26T15:45:29.726Z,98266.00
2023-10-26T15:48:07.875Z,98266.00
2023-10-26T15:50:40.856Z,98266.00
2023-10-26T15:53:12.694Z,98264.20
2023-10-26T15:55:43.942Z,98263.80
2023-10-26T15:58:15.320Z,98266.00
2023-10-26T16:00:46.474Z,98264.20
2023-10-26T16:03:17.647Z,98258.20
2023-10-26T16:05:48.970Z,98263.20
2023-10-26T16:08:20.160Z,98260.80
2023-10-26T16:10:51.341Z,98258.00
2023-10-26T16:13:22.627Z,98259.60
2023-10-26T16:15:53.922Z,98259.80
2023-10-26T16:18:25.519Z,98259.60
2023-10-26T16:20:56.853Z,98258.00
2023-10-26T16:23:28.520Z,98260.40
2023-10-26T16:26:00.373Z,98257.00
2023-10-26T16:28:31.572Z,98246.80
2023-10-26T16:31:03.534Z,98247.80
2023-10-26T16:33:35.093Z,98244.20
2023-10-26T16:36:07.510Z,98239.20
2023-10-26T16:38:38.665Z,98241.00
2023-10-26T16:41:09.897Z,98244.00
2023-10-26T16:43:41.062Z,98244.00
2023-10-26T16:46:14.139Z,98242.20
2023-10-26T16:48:45.427Z,98245.00
2023-10-26T16:51:16.768Z,98247.60
2023-10-26T16:53:47.982Z,98248.60
2023-10-26T16:56:19.105Z,98247.80
2023-10-26T16:58:50.196Z,98252.60
2023-10-26T17:01:21.526Z,98252.20
2023-10-26T17:03:52.778Z,98255.20
2023-10-26T17:06:24.038Z,98257.40
2023-10-26T17:08:55.213Z,98261.00
2023-10-26T17:11:26.458Z,98256.00
2023-10-26T17:13:57.582Z,98253.60
2023-10-26T17:16:28.899Z,98250.00
2023-10-26T17:19:01.714Z,98247.80
2023-10-26T17:21:32.970Z,98249.60
2023-10-26T17:24:04.281Z,98246.20
2023-10-26T17:26:35.439Z,98244.80
2023-10-26T17:29:06.645Z,98241.60
2023-10-26T17:31:37.969Z,98237.60
2023-10-26T17:34:09.695Z,98239.80
2023-10-26T17:36:42.021Z,98237.00
2023-10-26T17:39:14.084Z,98238.40
2023-10-26T17:41:46.743Z,98240.60
2023-10-26T17:44:17.909Z,98241.40
2023-10-26T17:46:49.286Z,98241.80
2023-10-26T17:49:20.571Z,98242.60
2023-10-26T17:51:51.856Z,98241.80
2023-10-26T17:54:23.219Z,98241.80
2023-10-26T17:56:54.619Z,98237.20
2023-10-26T17:59:25.858Z,98230.00
2023-10-26T18:01:57.214Z,98230.60
2023-10-26T18:04:28.590Z,98227.00
2023-10-26T18:07:03.559Z,98232.00
2023-10-26T18:09:35.708Z,98230.20
2023-10-26T18:12:07.999Z,98225.40
2023-10-26T18:14:39.823Z,98224.40
2023-10-26T18:17:11.087Z,98231.20
2023-10-26T18:19:42.531Z,98226.40
2023-10-26T18:22:14.244Z,98228.40
2023-10-26T18:24:45.521Z,98228.80
2023-10-26T18:27:16.760Z,98226.00
2023-10-26T18:29:50.144Z,98223.80
2023-10-26T18:32:21.895Z,98219.60
2023-10-26T18:34:53.234Z,98224.60
2023-10-26T18:37:24.391Z,98226.60
2023-10-26T18:39:58.190Z,98224.00
2023-10-26T18:42:29.426Z,98227.40
2023-10-26T18:45:00.607Z,98232.00
2023-10-26T18:47:31.854Z,98231.40
2023-10-26T18:50:03.166Z,98234.60
2023-10-26T18:52:34.331Z,98236.60
2023-10-26T18:55:06.180Z,98240.60
2023-10-26T18:57:37.631Z,98241.00
2023-10-26T19:00:11.117Z,98245.20
2023-10-26T19:02:42.555Z,98246.00
2023-10-26T19:05:13.844Z,98248.40
2023-10-26T19:07:45.048Z,98246.20
2023-10-26T19:10:18.809Z,98248.80
2023-10-26T19:12:52.533Z,98249.40
2023-10-26T19:15:23.881Z,98256.80
2023-10-26T19:17:55.516Z,98260.00
2023-10-26T19:20:27.324Z,98257.00
2023-10-26T19:22:58.482Z,98263.60
2023-10-26T19:25:30.144Z,98257.20
2023-10-26T19:28:02.689Z,98251.60
2023-10-26T19:30:34.574Z,98249.40
2023-10-26T19:33:06.273Z,98239.60
2023-10-26T19:35:37.526Z,98243.00
2023-10-26T19:38:09.337Z,98251.60
2023-10-26T19:40:42.447Z,98255.00
2023-10-26T19:43:13.699Z,98258.80
2023-10-26T19:45:45.201Z,98262.00
2023-10-26T19:48:16.480Z,98268.00
2023-10-26T19:50:47.663Z,98268.60
2023-10-26T19:53:18.948Z,98262.20
2023-10-26T19:55:50.157Z,98260.60
2023-10-26T19:58:21.488Z,98255.20
2023-10-26T20:00:53.069Z,98263.40
2023-10-26T20:03:24.304Z,98263.20
2023-10-26T20:05:55.447Z,98268.20
2023-10-26T20:08:26.727Z,98269.40
2023-10-26T20:10:57.902Z,98269.60
2023-10-26T20:13:29.075Z,98270.00
2023-10-26T20:16:00.343Z,98272.80
2023-10-26T20:18:38.229Z,98272.40
2023-10-26T20:21:10.467Z,98277.80
2023-10-26T20:23:41.639Z,98280.00
2023-10-26T20:26:12.858Z,98283.20
2023-10-26T20:28:44.025Z,98285.80
2023-10-26T20:31:15.265Z,98282.00
2023-10-26T20:33:46.512Z,98286.40
2023-10-26T20:36:17.699Z,98288.00
2023-10-26T20:38:48.875Z,98278.60
2023-10-26T20:41:20.276Z,98271.20
2023-10-26T20:43:51.926Z,98268.80
2023-10-26T20:46:23.276Z,98263.40
2023-10-26T20:48:54.498Z,98255.80
2023-10-26T20:51:25.713Z,98260.60
2023-10-26T20:53:56.858Z,98262.20
2023-10-26T20:56:28.077Z,98269.40
2023-10-26T20:58:59.199Z,98272.80
2023-10-26T21:01:30.523Z,98268.80
2023-10-26T21:04:01.706Z,98261.00
2023-10-26T21:06:32.755Z,98255.40
2023-10-26T21:09:05.841Z,98265.80
2023-10-26T21:11:36.979Z,98271.80
2023-10-26T21:14:08.338Z,98266.80
2023-10-26T21:16:40.361Z,98265.80
2023-10-26T21:19:12.017Z,98263.20
2023-10-26T21:21:43.370Z,98257.80
2023-10-26T21:24:14.672Z,98259.00
2023-10-26T21:26:45.712Z,98265.80
2023-10-26T21:29:17.172Z,98261.00
2023-10-26T21:31:48.319Z,98262.40
2023-10-26T21:34:19.525Z,98261.80
2023-10-26T21:36:50.710Z,98266.00
2023-10-26T21:39:21.897Z,98272.80
2023-10-26T21:41:53.072Z,98266.80
2023-10-26T21:44:24.329Z,98266.00
2023-10-26T21:46:55.558Z,98262.60
2023-10-26T21:49:26.651Z,98262.00
2023-10-26T21:51:57.955Z,98267.60
2023-10-26T21:54:29.166Z,98265.60
2023-10-26T21:57:00.409Z,98265.80
2023-10-26T21:59:31.652Z,98259.40
2023-10-26T22:02:02.788Z,98257.00
2023-10-26T22:04:34.083Z,98259.60
2023-10-26T22:07:05.631Z,98258.00
2023-10-26T22:09:48.512Z,98261.20
2023-10-26T22:12:23.629Z,98260.00
2023-10-26T22:14:55.170Z,98256.40
2023-10-26T22:17:26.576Z,98255.00
2023-10-26T22:19:58.040Z,98248.40
2023-10-26T22:22:29.220Z,98245.40
2023-10-26T22:25:00.461Z,98248.80
2023-10-26T22:27:33.614Z,98249.00
2023-10-26T22:30:05.077Z,98251.00
2023-10-26T22:32:36.405Z,98252.80
2023-10-26T22:35:08.191Z,98250.80
2023-10-26T22:37:39.534Z,98255.40
2023-10-26T22:40:12.618Z,98252.40
2023-10-26T22:49:54.029Z,98244.80
2023-10-26T22:52:23.046Z,98250.00
2023-10-26T22:54:51.788Z,98244.80
2023-10-26T22:57:20.462Z,98246.40
2023-10-26T22:59:49.273Z,98248.60
2023-10-26T23:02:17.875Z,98240.00
2023-10-26T23:04:46.628Z,98234.20
2023-10-26T23:07:16.524Z,98235.40
2023-10-26T23:09:45.468Z,98231.20
2023-10-26T23:12:14.519Z,98224.60
2023-10-26T23:14:43.107Z,98224.00
2023-10-26T23:17:12.372Z,98226.40
2023-10-26T23:19:40.992Z,98227.80
2023-10-26T23:22:10.419Z,98226.00
2023-10-26T23:24:39.485Z,98227.00
2023-10-26T23:27:08.036Z,98228.00
2023-10-26T23:29:36.624Z,98225.40
2023-10-26T23:32:06.416Z,98234.20
2023-10-26T23:34:34.926Z,98232.20
2023-10-26T23:37:03.529Z,98235.80
2023-10-26T23:39:36.029Z,98235.80
2023-10-26T23:42:05.194Z,98243.40
2023-10-26T23:44:33.538Z,98232.20
2023-10-26T23:47:01.984Z,98223.80
2023-10-26T23:49:30.727Z,98221.60
2023-10-26T23:51:59.300Z,98210.00
2023-10-26T23:54:27.840Z,98207.40
2023-10-26T23:56:56.336Z,98210.60
2023-10-26T23:59:24.782Z,98217.20
